sensor_id;sensor_type;location;lat;lon;timestamp;P1;durP1;ratioP1;P2;durP2;ratioP2
7523;SDS011;3803;51.666;7.630;2023-06-22T00:00:20;13.50;;;8.85;;
7523;SDS011;3803;51.666;7.630;2023-06-22T00:00:41;12.75;;;8.50;;
7523;SDS011;3803;51.666;7.630;2023-06-22T00:01:03;11.43;;;8.40;;
7523;SDS011;3803;51.666;7.630;2023-06-22T00:01:23;11.98;;;8.70;;
7523;SDS011;3803;51.666;7.630;2023-06-22T00:01:44;13.00;;;9.00;;
7523;SDS011;3803;51.666;7.630;2023-06-22T00:02:05;12.57;;;9.13;;
7523;SDS011;3803;51.666;7.630;2023-06-22T00:02:26;11.60;;;9.15;;
7523;SDS011;3803;51.666;7.630;2023-06-22T00:02:46;11.20;;;9.20;;
7523;SDS011;3803;51.666;7.630;2023-06-22T00:03:07;12.27;;;8.80;;
7523;SDS011;3803;51.666;7.630;2023-06-22T00:03:28;11.97;;;8.77;;
7523;SDS011;3803;51.666;7.630;2023-06-22T00:03:49;11.05;;;8.50;;
7523;SDS011;3803;51.666;7.630;2023-06-22T00:04:10;10.25;;;8.82;;
7523;SDS011;3803;51.666;7.630;2023-06-22T00:04:30;11.43;;;9.20;;
7523;SDS011;3803;51.666;7.630;2023-06-22T00:04:51;12.80;;;9.83;;
7523;SDS011;3803;51.666;7.630;2023-06-22T00:05:12;12.85;;;9.90;;
7523;SDS011;3803;51.666;7.630;2023-06-22T00:05:33;12.13;;;9.40;;
7523;SDS011;3803;51.666;7.630;2023-06-22T00:05:53;10.70;;;9.00;;
7523;SDS011;3803;51.666;7.630;2023-06-22T00:06:14;11.70;;;9.23;;
7523;SDS011;3803;51.666;7.630;2023-06-22T00:06:35;15.88;;;9.90;;
7523;SDS011;3803;51.666;7.630;2023-06-22T00:06:56;16.63;;;9.93;;
7523;SDS011;3803;51.666;7.630;2023-06-22T00:07:17;16.58;;;10.30;;
7523;SDS011;3803;51.666;7.630;2023-06-22T00:07:37;12.55;;;10.15;;
7523;SDS011;3803;51.666;7.630;2023-06-22T00:08:01;11.37;;;9.80;;
7523;SDS011;3803;51.666;7.630;2023-06-22T00:08:23;11.10;;;9.15;;
7523;SDS011;3803;51.666;7.630;2023-06-22T00:08:44;11.60;;;9.20;;
7523;SDS011;3803;51.666;7.630;2023-06-22T00:09:05;12.05;;;9.90;;
7523;SDS011;3803;51.666;7.630;2023-06-22T00:09:27;13.60;;;9.98;;
7523;SDS011;3803;51.666;7.630;2023-06-22T00:09:48;13.57;;;10.27;;
7523;SDS011;3803;51.666;7.630;2023-06-22T00:10:08;12.55;;;9.55;;
7523;SDS011;3803;51.666;7.630;2023-06-22T00:10:29;11.73;;;9.50;;
7523;SDS011;3803;51.666;7.630;2023-06-22T00:10:49;11.38;;;9.05;;
7523;SDS011;3803;51.666;7.630;2023-06-22T00:11:10;12.45;;;9.63;;
7523;SDS011;3803;51.666;7.630;2023-06-22T00:11:32;12.38;;;9.68;;
7523;SDS011;3803;51.666;7.630;2023-06-22T00:11:53;12.25;;;9.63;;
7523;SDS011;3803;51.666;7.630;2023-06-22T00:12:17;11.50;;;9.37;;
7523;SDS011;3803;51.666;7.630;2023-06-22T00:12:56;11.70;;;9.40;;
7523;SDS011;3803;51.666;7.630;2023-06-22T00:13:35;11.13;;;9.38;;
7523;SDS011;3803;51.666;7.630;2023-06-22T00:13:56;10.87;;;9.43;;
7523;SDS011;3803;51.666;7.630;2023-06-22T00:14:16;13.00;;;10.05;;
7523;SDS011;3803;51.666;7.630;2023-06-22T00:14:37;13.80;;;10.00;;
7523;SDS011;3803;51.666;7.630;2023-06-22T00:14:58;13.68;;;9.75;;
7523;SDS011;3803;51.666;7.630;2023-06-22T00:15:20;11.65;;;9.50;;
7523;SDS011;3803;51.666;7.630;2023-06-22T00:15:41;11.07;;;9.70;;
7523;SDS011;3803;51.666;7.630;2023-06-22T00:16:02;11.18;;;9.52;;
7523;SDS011;3803;51.666;7.630;2023-06-22T00:16:22;13.90;;;9.75;;
7523;SDS011;3803;51.666;7.630;2023-06-22T00:16:43;13.80;;;9.37;;
7523;SDS011;3803;51.666;7.630;2023-06-22T00:17:04;13.80;;;9.63;;
7523;SDS011;3803;51.666;7.630;2023-06-22T00:17:24;12.05;;;9.20;;
7523;SDS011;3803;51.666;7.630;2023-06-22T00:17:45;13.15;;;9.60;;
7523;SDS011;3803;51.666;7.630;2023-06-22T00:18:07;12.93;;;9.70;;
7523;SDS011;3803;51.666;7.630;2023-06-22T00:18:28;12.43;;;9.75;;
7523;SDS011;3803;51.666;7.630;2023-06-22T00:18:52;12.07;;;9.38;;
7523;SDS011;3803;51.666;7.630;2023-06-22T00:19:13;11.57;;;8.87;;
7523;SDS011;3803;51.666;7.630;2023-06-22T00:19:34;10.80;;;8.80;;
7523;SDS011;3803;51.666;7.630;2023-06-22T00:19:55;9.95;;;8.35;;
7523;SDS011;3803;51.666;7.630;2023-06-22T00:20:18;11.13;;;8.98;;
7523;SDS011;3803;51.666;7.630;2023-06-22T00:20:41;11.95;;;9.40;;
7523;SDS011;3803;51.666;7.630;2023-06-22T00:21:02;11.73;;;9.38;;
7523;SDS011;3803;51.666;7.630;2023-06-22T00:21:23;11.25;;;9.27;;
7523;SDS011;3803;51.666;7.630;2023-06-22T00:21:44;10.63;;;8.90;;
7523;SDS011;3803;51.666;7.630;2023-06-22T00:22:07;10.38;;;8.48;;
7523;SDS011;3803;51.666;7.630;2023-06-22T00:22:27;10.73;;;8.40;;
7523;SDS011;3803;51.666;7.630;2023-06-22T00:22:48;11.13;;;8.60;;
7523;SDS011;3803;51.666;7.630;2023-06-22T00:23:09;11.50;;;8.88;;
7523;SDS011;3803;51.666;7.630;2023-06-22T00:23:30;10.80;;;8.93;;
7523;SDS011;3803;51.666;7.630;2023-06-22T00:23:54;11.65;;;9.55;;
7523;SDS011;3803;51.666;7.630;2023-06-22T00:24:16;11.90;;;9.90;;
7523;SDS011;3803;51.666;7.630;2023-06-22T00:24:36;11.77;;;9.80;;
7523;SDS011;3803;51.666;7.630;2023-06-22T00:24:57;11.20;;;9.63;;
7523;SDS011;3803;51.666;7.630;2023-06-22T00:25:17;11.10;;;9.27;;
7523;SDS011;3803;51.666;7.630;2023-06-22T00:25:38;10.23;;;8.80;;
7523;SDS011;3803;51.666;7.630;2023-06-22T00:26:02;10.80;;;9.30;;
7523;SDS011;3803;51.666;7.630;2023-06-22T00:26:22;11.85;;;9.93;;
7523;SDS011;3803;51.666;7.630;2023-06-22T00:26:44;12.38;;;10.40;;
7523;SDS011;3803;51.666;7.630;2023-06-22T00:27:05;13.07;;;10.50;;
7523;SDS011;3803;51.666;7.630;2023-06-22T00:27:26;12.98;;;10.43;;
7523;SDS011;3803;51.666;7.630;2023-06-22T00:27:47;13.20;;;10.17;;
7523;SDS011;3803;51.666;7.630;2023-06-22T00:28:08;11.75;;;9.55;;
7523;SDS011;3803;51.666;7.630;2023-06-22T00:28:29;11.55;;;9.15;;
7523;SDS011;3803;51.666;7.630;2023-06-22T00:28:50;10.82;;;8.93;;
7523;SDS011;3803;51.666;7.630;2023-06-22T00:29:11;12.32;;;9.55;;
7523;SDS011;3803;51.666;7.630;2023-06-22T00:29:32;12.77;;;10.00;;
7523;SDS011;3803;51.666;7.630;2023-06-22T00:29:52;12.57;;;10.40;;
7523;SDS011;3803;51.666;7.630;2023-06-22T00:30:14;11.52;;;10.32;;
7523;SDS011;3803;51.666;7.630;2023-06-22T00:30:39;11.80;;;10.18;;
7523;SDS011;3803;51.666;7.630;2023-06-22T00:30:59;12.80;;;10.38;;
7523;SDS011;3803;51.666;7.630;2023-06-22T00:31:20;13.77;;;10.80;;
7523;SDS011;3803;51.666;7.630;2023-06-22T00:31:41;14.40;;;10.57;;
7523;SDS011;3803;51.666;7.630;2023-06-22T00:32:02;14.17;;;10.30;;
7523;SDS011;3803;51.666;7.630;2023-06-22T00:32:23;13.30;;;9.70;;
7523;SDS011;3803;51.666;7.630;2023-06-22T00:32:44;12.20;;;9.70;;
7523;SDS011;3803;51.666;7.630;2023-06-22T00:33:09;11.73;;;10.05;;
7523;SDS011;3803;51.666;7.630;2023-06-22T00:33:29;12.10;;;10.10;;
7523;SDS011;3803;51.666;7.630;2023-06-22T00:33:50;12.57;;;10.40;;
7523;SDS011;3803;51.666;7.630;2023-06-22T00:34:11;13.05;;;10.40;;
7523;SDS011;3803;51.666;7.630;2023-06-22T00:34:32;14.57;;;10.48;;
7523;SDS011;3803;51.666;7.630;2023-06-22T00:34:53;14.55;;;10.48;;
7523;SDS011;3803;51.666;7.630;2023-06-22T00:35:14;14.48;;;10.70;;
7523;SDS011;3803;51.666;7.630;2023-06-22T00:35:35;13.10;;;11.05;;
7523;SDS011;3803;51.666;7.630;2023-06-22T00:35:56;15.02;;;11.50;;
7523;SDS011;3803;51.666;7.630;2023-06-22T00:36:19;14.63;;;11.10;;
7523;SDS011;3803;51.666;7.630;2023-06-22T00:36:40;14.80;;;10.77;;
7523;SDS011;3803;51.666;7.630;2023-06-22T00:37:01;12.35;;;10.10;;
7523;SDS011;3803;51.666;7.630;2023-06-22T00:37:21;12.80;;;10.43;;
7523;SDS011;3803;51.666;7.630;2023-06-22T00:37:47;14.10;;;10.73;;
7523;SDS011;3803;51.666;7.630;2023-06-22T00:38:08;15.40;;;11.20;;
7523;SDS011;3803;51.666;7.630;2023-06-22T00:38:29;13.23;;;10.70;;
7523;SDS011;3803;51.666;7.630;2023-06-22T00:38:49;13.27;;;10.60;;
7523;SDS011;3803;51.666;7.630;2023-06-22T00:39:10;12.93;;;10.75;;
7523;SDS011;3803;51.666;7.630;2023-06-22T00:39:32;13.25;;;11.25;;
7523;SDS011;3803;51.666;7.630;2023-06-22T00:39:53;13.70;;;11.40;;
7523;SDS011;3803;51.666;7.630;2023-06-22T00:40:14;14.98;;;11.52;;
7523;SDS011;3803;51.666;7.630;2023-06-22T00:40:37;14.52;;;11.40;;
7523;SDS011;3803;51.666;7.630;2023-06-22T00:40:58;13.80;;;10.75;;
7523;SDS011;3803;51.666;7.630;2023-06-22T00:41:20;13.52;;;10.50;;
7523;SDS011;3803;51.666;7.630;2023-06-22T00:41:40;14.03;;;10.87;;
7523;SDS011;3803;51.666;7.630;2023-06-22T00:42:01;12.65;;;10.75;;
7523;SDS011;3803;51.666;7.630;2023-06-22T00:42:24;12.07;;;10.60;;
7523;SDS011;3803;51.666;7.630;2023-06-22T00:42:45;12.50;;;10.95;;
7523;SDS011;3803;51.666;7.630;2023-06-22T00:43:06;12.75;;;11.15;;
7523;SDS011;3803;51.666;7.630;2023-06-22T00:43:26;13.20;;;11.07;;
7523;SDS011;3803;51.666;7.630;2023-06-22T00:43:47;13.55;;;11.43;;
7523;SDS011;3803;51.666;7.630;2023-06-22T00:44:08;14.70;;;11.85;;
7523;SDS011;3803;51.666;7.630;2023-06-22T00:44:28;14.00;;;11.68;;
7523;SDS011;3803;51.666;7.630;2023-06-22T00:44:49;13.50;;;11.27;;
7523;SDS011;3803;51.666;7.630;2023-06-22T00:45:11;12.20;;;10.80;;
7523;SDS011;3803;51.666;7.630;2023-06-22T00:45:31;12.77;;;10.80;;
7523;SDS011;3803;51.666;7.630;2023-06-22T00:45:52;13.07;;;10.85;;
7523;SDS011;3803;51.666;7.630;2023-06-22T00:46:16;12.45;;;10.90;;
7523;SDS011;3803;51.666;7.630;2023-06-22T00:46:37;13.32;;;10.85;;
7523;SDS011;3803;51.666;7.630;2023-06-22T00:46:59;14.25;;;11.23;;
7523;SDS011;3803;51.666;7.630;2023-06-22T00:47:20;16.98;;;11.25;;
7523;SDS011;3803;51.666;7.630;2023-06-22T00:47:42;14.93;;;10.50;;
7523;SDS011;3803;51.666;7.630;2023-06-22T00:48:04;12.98;;;9.98;;
7523;SDS011;3803;51.666;7.630;2023-06-22T00:48:26;12.40;;;10.07;;
7523;SDS011;3803;51.666;7.630;2023-06-22T00:48:47;15.07;;;11.07;;
7523;SDS011;3803;51.666;7.630;2023-06-22T00:49:08;15.95;;;11.20;;
7523;SDS011;3803;51.666;7.630;2023-06-22T00:49:29;14.40;;;10.93;;
7523;SDS011;3803;51.666;7.630;2023-06-22T00:49:50;13.48;;;10.35;;
7523;SDS011;3803;51.666;7.630;2023-06-22T00:50:12;13.43;;;10.33;;
7523;SDS011;3803;51.666;7.630;2023-06-22T00:50:38;13.00;;;10.23;;
7523;SDS011;3803;51.666;7.630;2023-06-22T00:51:00;13.57;;;10.68;;
7523;SDS011;3803;51.666;7.630;2023-06-22T00:51:21;14.50;;;10.90;;
7523;SDS011;3803;51.666;7.630;2023-06-22T00:51:50;15.07;;;11.32;;
7523;SDS011;3803;51.666;7.630;2023-06-22T00:52:11;14.10;;;11.05;;
7523;SDS011;3803;51.666;7.630;2023-06-22T00:52:34;13.20;;;10.60;;
7523;SDS011;3803;51.666;7.630;2023-06-22T00:52:56;12.55;;;10.43;;
7523;SDS011;3803;51.666;7.630;2023-06-22T00:53:19;11.80;;;10.20;;
7523;SDS011;3803;51.666;7.630;2023-06-22T00:53:39;12.70;;;10.48;;
7523;SDS011;3803;51.666;7.630;2023-06-22T00:54:01;12.40;;;10.30;;
7523;SDS011;3803;51.666;7.630;2023-06-22T00:54:21;12.65;;;10.20;;
7523;SDS011;3803;51.666;7.630;2023-06-22T00:54:44;12.27;;;10.35;;
7523;SDS011;3803;51.666;7.630;2023-06-22T00:55:06;12.80;;;10.15;;
7523;SDS011;3803;51.666;7.630;2023-06-22T00:55:27;12.70;;;10.40;;
7523;SDS011;3803;51.666;7.630;2023-06-22T00:55:48;12.70;;;10.30;;
7523;SDS011;3803;51.666;7.630;2023-06-22T00:56:12;12.70;;;11.10;;
7523;SDS011;3803;51.666;7.630;2023-06-22T00:56:33;13.13;;;10.98;;
7523;SDS011;3803;51.666;7.630;2023-06-22T00:56:57;14.60;;;11.38;;
7523;SDS011;3803;51.666;7.630;2023-06-22T00:57:19;14.50;;;11.10;;
7523;SDS011;3803;51.666;7.630;2023-06-22T00:57:40;13.35;;;10.68;;
7523;SDS011;3803;51.666;7.630;2023-06-22T00:58:01;12.43;;;10.00;;
7523;SDS011;3803;51.666;7.630;2023-06-22T00:58:21;12.68;;;10.60;;
7523;SDS011;3803;51.666;7.630;2023-06-22T00:58:42;13.80;;;10.75;;
7523;SDS011;3803;51.666;7.630;2023-06-22T00:59:03;14.00;;;11.18;;
7523;SDS011;3803;51.666;7.630;2023-06-22T00:59:24;13.47;;;10.87;;
7523;SDS011;3803;51.666;7.630;2023-06-22T00:59:47;12.73;;;11.43;;
7523;SDS011;3803;51.666;7.630;2023-06-22T01:00:09;13.32;;;11.55;;
7523;SDS011;3803;51.666;7.630;2023-06-22T01:00:32;13.20;;;11.05;;
7523;SDS011;3803;51.666;7.630;2023-06-22T01:00:54;13.73;;;11.23;;
7523;SDS011;3803;51.666;7.630;2023-06-22T01:01:15;14.20;;;11.00;;
7523;SDS011;3803;51.666;7.630;2023-06-22T01:01:35;15.65;;;11.10;;
7523;SDS011;3803;51.666;7.630;2023-06-22T01:02:01;14.63;;;10.70;;
7523;SDS011;3803;51.666;7.630;2023-06-22T01:02:22;14.65;;;11.00;;
7523;SDS011;3803;51.666;7.630;2023-06-22T01:02:43;12.95;;;10.15;;
7523;SDS011;3803;51.666;7.630;2023-06-22T01:03:07;12.60;;;9.95;;
7523;SDS011;3803;51.666;7.630;2023-06-22T01:03:31;12.07;;;10.02;;
7523;SDS011;3803;51.666;7.630;2023-06-22T01:03:52;12.68;;;10.70;;
7523;SDS011;3803;51.666;7.630;2023-06-22T01:04:12;13.38;;;11.40;;
7523;SDS011;3803;51.666;7.630;2023-06-22T01:04:34;14.02;;;11.73;;
7523;SDS011;3803;51.666;7.630;2023-06-22T01:04:57;14.73;;;11.38;;
7523;SDS011;3803;51.666;7.630;2023-06-22T01:05:20;15.07;;;11.00;;
7523;SDS011;3803;51.666;7.630;2023-06-22T01:05:42;15.23;;;10.80;;
7523;SDS011;3803;51.666;7.630;2023-06-22T01:06:10;14.73;;;11.50;;
7523;SDS011;3803;51.666;7.630;2023-06-22T01:06:42;13.85;;;11.73;;
7523;SDS011;3803;51.666;7.630;2023-06-22T01:08:48;15.70;;;11.77;;
7523;SDS011;3803;51.666;7.630;2023-06-22T01:09:21;15.32;;;11.95;;
7523;SDS011;3803;51.666;7.630;2023-06-22T01:10:11;14.65;;;11.35;;
7523;SDS011;3803;51.666;7.630;2023-06-22T01:10:44;13.98;;;11.65;;
7523;SDS011;3803;51.666;7.630;2023-06-22T01:11:18;13.20;;;11.48;;
7523;SDS011;3803;51.666;7.630;2023-06-22T01:11:48;13.43;;;11.77;;
7523;SDS011;3803;51.666;7.630;2023-06-22T01:12:18;13.60;;;12.02;;
7523;SDS011;3803;51.666;7.630;2023-06-22T01:12:43;14.18;;;12.20;;
7523;SDS011;3803;51.666;7.630;2023-06-22T01:13:54;13.20;;;11.60;;
7523;SDS011;3803;51.666;7.630;2023-06-22T01:14:04;12.30;;;10.60;;
7523;SDS011;3803;51.666;7.630;2023-06-22T01:14:49;14.05;;;11.82;;
7523;SDS011;3803;51.666;7.630;2023-06-22T01:15:16;13.30;;;11.20;;
7523;SDS011;3803;51.666;7.630;2023-06-22T01:16:09;14.25;;;10.95;;
7523;SDS011;3803;51.666;7.630;2023-06-22T01:16:45;14.02;;;11.80;;
7523;SDS011;3803;51.666;7.630;2023-06-22T01:17:08;14.05;;;11.80;;
7523;SDS011;3803;51.666;7.630;2023-06-22T01:17:33;13.40;;;11.32;;
7523;SDS011;3803;51.666;7.630;2023-06-22T01:17:56;12.73;;;10.90;;
7523;SDS011;3803;51.666;7.630;2023-06-22T01:18:19;13.20;;;11.10;;
7523;SDS011;3803;51.666;7.630;2023-06-22T01:18:45;13.82;;;11.63;;
7523;SDS011;3803;51.666;7.630;2023-06-22T01:19:16;14.35;;;11.65;;
7523;SDS011;3803;51.666;7.630;2023-06-22T01:19:48;15.70;;;12.45;;
7523;SDS011;3803;51.666;7.630;2023-06-22T01:20:15;15.40;;;13.13;;
7523;SDS011;3803;51.666;7.630;2023-06-22T01:20:37;14.60;;;12.52;;
7523;SDS011;3803;51.666;7.630;2023-06-22T01:21:01;14.15;;;11.75;;
7523;SDS011;3803;51.666;7.630;2023-06-22T01:21:24;14.60;;;12.10;;
7523;SDS011;3803;51.666;7.630;2023-06-22T01:21:46;14.57;;;12.80;;
7523;SDS011;3803;51.666;7.630;2023-06-22T01:22:07;15.80;;;13.30;;
7523;SDS011;3803;51.666;7.630;2023-06-22T01:22:33;15.00;;;12.80;;
7523;SDS011;3803;51.666;7.630;2023-06-22T01:26:04;16.02;;;12.55;;
7523;SDS011;3803;51.666;7.630;2023-06-22T01:26:56;13.02;;;11.57;;
7523;SDS011;3803;51.666;7.630;2023-06-22T01:28:45;16.83;;;13.38;;
7523;SDS011;3803;51.666;7.630;2023-06-22T01:29:06;16.38;;;13.38;;
7523;SDS011;3803;51.666;7.630;2023-06-22T01:29:29;15.05;;;13.15;;
7523;SDS011;3803;51.666;7.630;2023-06-22T01:29:55;14.80;;;13.00;;
7523;SDS011;3803;51.666;7.630;2023-06-22T01:30:29;17.65;;;12.60;;
7523;SDS011;3803;51.666;7.630;2023-06-22T01:30:53;19.77;;;12.50;;
7523;SDS011;3803;51.666;7.630;2023-06-22T01:31:24;17.30;;;12.70;;
7523;SDS011;3803;51.666;7.630;2023-06-22T01:31:46;14.50;;;12.57;;
7523;SDS011;3803;51.666;7.630;2023-06-22T01:32:09;13.48;;;12.07;;
7523;SDS011;3803;51.666;7.630;2023-06-22T01:32:32;12.55;;;11.05;;
7523;SDS011;3803;51.666;7.630;2023-06-22T01:32:57;13.25;;;10.73;;
7523;SDS011;3803;51.666;7.630;2023-06-22T01:33:20;14.40;;;11.20;;
7523;SDS011;3803;51.666;7.630;2023-06-22T01:33:41;16.37;;;12.13;;
7523;SDS011;3803;51.666;7.630;2023-06-22T01:34:05;16.13;;;12.32;;
7523;SDS011;3803;51.666;7.630;2023-06-22T01:34:30;15.60;;;12.20;;
7523;SDS011;3803;51.666;7.630;2023-06-22T01:34:51;15.70;;;11.95;;
7523;SDS011;3803;51.666;7.630;2023-06-22T01:35:12;16.87;;;12.43;;
7523;SDS011;3803;51.666;7.630;2023-06-22T01:35:35;16.30;;;12.45;;
7523;SDS011;3803;51.666;7.630;2023-06-22T01:35:56;14.45;;;11.98;;
7523;SDS011;3803;51.666;7.630;2023-06-22T01:36:18;14.07;;;11.40;;
7523;SDS011;3803;51.666;7.630;2023-06-22T01:36:40;13.38;;;11.00;;
7523;SDS011;3803;51.666;7.630;2023-06-22T01:37:01;13.35;;;10.75;;
7523;SDS011;3803;51.666;7.630;2023-06-22T01:37:23;13.52;;;11.30;;
7523;SDS011;3803;51.666;7.630;2023-06-22T01:37:45;13.82;;;11.20;;
7523;SDS011;3803;51.666;7.630;2023-06-22T01:38:07;15.30;;;11.98;;
7523;SDS011;3803;51.666;7.630;2023-06-22T01:38:29;16.17;;;12.23;;
7523;SDS011;3803;51.666;7.630;2023-06-22T01:38:51;17.25;;;12.43;;
7523;SDS011;3803;51.666;7.630;2023-06-22T01:39:13;15.77;;;11.82;;
7523;SDS011;3803;51.666;7.630;2023-06-22T01:39:35;15.10;;;11.30;;
7523;SDS011;3803;51.666;7.630;2023-06-22T01:39:56;15.38;;;11.90;;
7523;SDS011;3803;51.666;7.630;2023-06-22T01:40:18;15.88;;;12.40;;
7523;SDS011;3803;51.666;7.630;2023-06-22T01:40:40;14.82;;;12.10;;
7523;SDS011;3803;51.666;7.630;2023-06-22T01:41:01;14.30;;;12.30;;
7523;SDS011;3803;51.666;7.630;2023-06-22T01:41:24;14.32;;;12.18;;
7523;SDS011;3803;51.666;7.630;2023-06-22T01:41:47;14.63;;;12.40;;
7523;SDS011;3803;51.666;7.630;2023-06-22T01:42:09;14.45;;;12.07;;
7523;SDS011;3803;51.666;7.630;2023-06-22T01:42:30;13.97;;;11.93;;
7523;SDS011;3803;51.666;7.630;2023-06-22T01:42:53;14.82;;;12.10;;
7523;SDS011;3803;51.666;7.630;2023-06-22T01:43:14;15.30;;;12.00;;
7523;SDS011;3803;51.666;7.630;2023-06-22T01:43:35;16.15;;;12.30;;
7523;SDS011;3803;51.666;7.630;2023-06-22T01:43:57;14.93;;;12.18;;
7523;SDS011;3803;51.666;7.630;2023-06-22T01:44:19;14.70;;;12.88;;
7523;SDS011;3803;51.666;7.630;2023-06-22T01:44:42;15.25;;;12.80;;
7523;SDS011;3803;51.666;7.630;2023-06-22T01:45:04;15.35;;;12.55;;
7523;SDS011;3803;51.666;7.630;2023-06-22T01:45:27;15.65;;;12.35;;
7523;SDS011;3803;51.666;7.630;2023-06-22T01:45:48;15.50;;;12.07;;
7523;SDS011;3803;51.666;7.630;2023-06-22T01:46:10;14.52;;;11.60;;
7523;SDS011;3803;51.666;7.630;2023-06-22T01:46:35;13.32;;;11.68;;
7523;SDS011;3803;51.666;7.630;2023-06-22T01:46:56;13.20;;;11.80;;
7523;SDS011;3803;51.666;7.630;2023-06-22T01:47:18;13.73;;;12.20;;
7523;SDS011;3803;51.666;7.630;2023-06-22T01:47:39;14.85;;;12.40;;
7523;SDS011;3803;51.666;7.630;2023-06-22T01:48:00;15.65;;;12.68;;
7523;SDS011;3803;51.666;7.630;2023-06-22T01:48:22;15.07;;;12.57;;
7523;SDS011;3803;51.666;7.630;2023-06-22T01:48:43;14.68;;;12.18;;
7523;SDS011;3803;51.666;7.630;2023-06-22T01:49:05;14.07;;;11.88;;
7523;SDS011;3803;51.666;7.630;2023-06-22T01:49:26;13.98;;;11.73;;
7523;SDS011;3803;51.666;7.630;2023-06-22T01:49:48;13.45;;;11.50;;
7523;SDS011;3803;51.666;7.630;2023-06-22T01:50:09;13.40;;;11.40;;
7523;SDS011;3803;51.666;7.630;2023-06-22T01:50:31;12.95;;;11.18;;
7523;SDS011;3803;51.666;7.630;2023-06-22T01:50:52;13.20;;;11.45;;
7523;SDS011;3803;51.666;7.630;2023-06-22T01:51:14;14.80;;;12.10;;
7523;SDS011;3803;51.666;7.630;2023-06-22T01:51:41;16.33;;;12.57;;
7523;SDS011;3803;51.666;7.630;2023-06-22T01:52:02;19.88;;;13.32;;
7523;SDS011;3803;51.666;7.630;2023-06-22T01:52:23;18.80;;;13.00;;
7523;SDS011;3803;51.666;7.630;2023-06-22T01:52:44;17.30;;;12.70;;
7523;SDS011;3803;51.666;7.630;2023-06-22T01:53:05;15.50;;;12.60;;
7523;SDS011;3803;51.666;7.630;2023-06-22T01:53:27;15.00;;;12.20;;
7523;SDS011;3803;51.666;7.630;2023-06-22T01:53:48;14.90;;;12.00;;
7523;SDS011;3803;51.666;7.630;2023-06-22T01:54:09;14.40;;;11.75;;
7523;SDS011;3803;51.666;7.630;2023-06-22T01:54:29;14.30;;;12.25;;
7523;SDS011;3803;51.666;7.630;2023-06-22T01:54:50;14.05;;;12.20;;
7523;SDS011;3803;51.666;7.630;2023-06-22T01:55:12;14.20;;;12.05;;
7523;SDS011;3803;51.666;7.630;2023-06-22T01:55:34;16.67;;;12.88;;
7523;SDS011;3803;51.666;7.630;2023-06-22T01:55:55;17.38;;;13.23;;
7523;SDS011;3803;51.666;7.630;2023-06-22T01:56:17;16.85;;;13.50;;
7523;SDS011;3803;51.666;7.630;2023-06-22T01:56:39;16.98;;;13.38;;
7523;SDS011;3803;51.666;7.630;2023-06-22T01:57:00;16.30;;;13.32;;
7523;SDS011;3803;51.666;7.630;2023-06-22T01:57:22;16.23;;;13.45;;
7523;SDS011;3803;51.666;7.630;2023-06-22T01:57:42;16.88;;;13.70;;
7523;SDS011;3803;51.666;7.630;2023-06-22T01:58:03;18.67;;;13.80;;
7523;SDS011;3803;51.666;7.630;2023-06-22T01:58:25;18.02;;;13.25;;
7523;SDS011;3803;51.666;7.630;2023-06-22T01:59:34;14.90;;;13.30;;
7523;SDS011;3803;51.666;7.630;2023-06-22T02:00:04;14.70;;;13.10;;
7523;SDS011;3803;51.666;7.630;2023-06-22T02:00:37;15.27;;;12.90;;
7523;SDS011;3803;51.666;7.630;2023-06-22T02:01:07;16.52;;;13.38;;
7523;SDS011;3803;51.666;7.630;2023-06-22T02:01:35;15.65;;;12.93;;
7523;SDS011;3803;51.666;7.630;2023-06-22T02:02:07;17.75;;;13.52;;
7523;SDS011;3803;51.666;7.630;2023-06-22T02:03:13;17.90;;;13.75;;
7523;SDS011;3803;51.666;7.630;2023-06-22T02:03:18;15.85;;;13.85;;
7523;SDS011;3803;51.666;7.630;2023-06-22T02:03:42;16.65;;;13.75;;
7523;SDS011;3803;51.666;7.630;2023-06-22T02:04:09;17.63;;;14.37;;
7523;SDS011;3803;51.666;7.630;2023-06-22T02:04:56;18.60;;;14.32;;
7523;SDS011;3803;51.666;7.630;2023-06-22T02:05:18;16.70;;;14.02;;
7523;SDS011;3803;51.666;7.630;2023-06-22T02:05:46;15.73;;;13.80;;
7523;SDS011;3803;51.666;7.630;2023-06-22T02:06:27;15.88;;;13.52;;
7523;SDS011;3803;51.666;7.630;2023-06-22T02:06:56;14.95;;;12.98;;
7523;SDS011;3803;51.666;7.630;2023-06-22T02:07:20;17.27;;;13.20;;
7523;SDS011;3803;51.666;7.630;2023-06-22T02:07:47;17.17;;;13.13;;
7523;SDS011;3803;51.666;7.630;2023-06-22T02:08:21;15.63;;;13.68;;
7523;SDS011;3803;51.666;7.630;2023-06-22T02:08:49;16.25;;;14.40;;
7523;SDS011;3803;51.666;7.630;2023-06-22T02:09:14;17.55;;;13.95;;
7523;SDS011;3803;51.666;7.630;2023-06-22T02:09:37;17.10;;;13.20;;
7523;SDS011;3803;51.666;7.630;2023-06-22T02:10:02;17.58;;;14.00;;
7523;SDS011;3803;51.666;7.630;2023-06-22T02:10:26;17.75;;;14.35;;
7523;SDS011;3803;51.666;7.630;2023-06-22T02:10:48;17.27;;;14.00;;
7523;SDS011;3803;51.666;7.630;2023-06-22T02:11:10;17.45;;;13.98;;
7523;SDS011;3803;51.666;7.630;2023-06-22T02:11:36;17.58;;;13.88;;
7523;SDS011;3803;51.666;7.630;2023-06-22T02:11:58;18.05;;;14.10;;
7523;SDS011;3803;51.666;7.630;2023-06-22T02:12:23;17.23;;;14.10;;
7523;SDS011;3803;51.666;7.630;2023-06-22T02:12:47;16.45;;;13.85;;
7523;SDS011;3803;51.666;7.630;2023-06-22T02:13:10;15.52;;;13.52;;
7523;SDS011;3803;51.666;7.630;2023-06-22T02:13:31;16.10;;;13.90;;
7523;SDS011;3803;51.666;7.630;2023-06-22T02:13:53;16.20;;;13.93;;
7523;SDS011;3803;51.666;7.630;2023-06-22T02:14:14;16.67;;;13.98;;
7523;SDS011;3803;51.666;7.630;2023-06-22T02:14:36;16.15;;;13.95;;
7523;SDS011;3803;51.666;7.630;2023-06-22T02:14:57;16.30;;;14.00;;
7523;SDS011;3803;51.666;7.630;2023-06-22T02:15:21;17.23;;;14.40;;
7523;SDS011;3803;51.666;7.630;2023-06-22T02:15:47;18.08;;;14.90;;
7523;SDS011;3803;51.666;7.630;2023-06-22T02:16:09;17.90;;;14.82;;
7523;SDS011;3803;51.666;7.630;2023-06-22T02:16:34;16.60;;;13.60;;
7523;SDS011;3803;51.666;7.630;2023-06-22T02:16:57;14.23;;;12.63;;
7523;SDS011;3803;51.666;7.630;2023-06-22T02:17:19;13.52;;;12.13;;
7523;SDS011;3803;51.666;7.630;2023-06-22T02:17:40;14.05;;;12.55;;
7523;SDS011;3803;51.666;7.630;2023-06-22T02:18:05;15.57;;;13.23;;
7523;SDS011;3803;51.666;7.630;2023-06-22T02:18:26;17.90;;;14.25;;
7523;SDS011;3803;51.666;7.630;2023-06-22T02:18:50;18.20;;;14.50;;
7523;SDS011;3803;51.666;7.630;2023-06-22T02:19:11;15.65;;;13.93;;
7523;SDS011;3803;51.666;7.630;2023-06-22T02:19:32;15.90;;;13.98;;
7523;SDS011;3803;51.666;7.630;2023-06-22T02:19:56;16.25;;;14.13;;
7523;SDS011;3803;51.666;7.630;2023-06-22T02:20:16;16.15;;;14.40;;
7523;SDS011;3803;51.666;7.630;2023-06-22T02:20:38;15.85;;;14.15;;
7523;SDS011;3803;51.666;7.630;2023-06-22T02:21:00;16.50;;;14.07;;
7523;SDS011;3803;51.666;7.630;2023-06-22T02:21:21;16.33;;;14.02;;
7523;SDS011;3803;51.666;7.630;2023-06-22T02:21:41;17.30;;;14.37;;
7523;SDS011;3803;51.666;7.630;2023-06-22T02:22:03;17.73;;;14.32;;
7523;SDS011;3803;51.666;7.630;2023-06-22T02:22:24;18.40;;;14.57;;
7523;SDS011;3803;51.666;7.630;2023-06-22T02:22:45;18.48;;;14.80;;
7523;SDS011;3803;51.666;7.630;2023-06-22T02:23:06;18.23;;;14.68;;
7523;SDS011;3803;51.666;7.630;2023-06-22T02:23:29;16.60;;;13.88;;
7523;SDS011;3803;51.666;7.630;2023-06-22T02:23:50;16.05;;;13.27;;
7523;SDS011;3803;51.666;7.630;2023-06-22T02:24:11;16.00;;;13.30;;
7523;SDS011;3803;51.666;7.630;2023-06-22T02:24:32;15.68;;;13.27;;
7523;SDS011;3803;51.666;7.630;2023-06-22T02:24:53;16.52;;;13.75;;
7523;SDS011;3803;51.666;7.630;2023-06-22T02:25:14;16.30;;;13.90;;
7523;SDS011;3803;51.666;7.630;2023-06-22T02:25:35;17.25;;;14.18;;
7523;SDS011;3803;51.666;7.630;2023-06-22T02:25:56;15.57;;;13.10;;
7523;SDS011;3803;51.666;7.630;2023-06-22T02:26:18;15.20;;;12.52;;
7523;SDS011;3803;51.666;7.630;2023-06-22T02:26:39;14.18;;;12.50;;
7523;SDS011;3803;51.666;7.630;2023-06-22T02:27:03;15.25;;;13.10;;